sensor_id;sensor_type;location;lat;lon;timestamp;pressure;altitude;pressure_sealevel;temperature;humidity
21781;BME280;52576;53.614;9.894;2023-02-23T00:00:47;100939.56;;;7.02;88.31
21781;BME280;52576;53.614;9.894;2023-02-23T00:02:52;100933.69;;;6.98;88.34
21781;BME280;52576;53.614;9.894;2023-02-23T00:04:56;100932.00;;;6.97;88.45
21781;BME280;52576;53.614;9.894;2023-02-23T00:07:00;100942.50;;;6.96;88.46
21781;BME280;52576;53.614;9.894;2023-02-23T00:09:04;100937.50;;;6.91;88.37
21781;BME280;52576;53.614;9.894;2023-02-23T00:11:23;100935.91;;;6.89;88.42
21781;BME280;52576;53.614;9.894;2023-02-23T00:13:28;100941.25;;;6.86;88.36
21781;BME280;52576;53.614;9.894;2023-02-23T00:15:31;100931.81;;;6.83;88.42
21781;BME280;52576;53.614;9.894;2023-02-23T00:17:35;100925.78;;;6.82;88.65
21781;BME280;52576;53.614;9.894;2023-02-23T00:19:40;100926.75;;;6.80;88.67
21781;BME280;52576;53.614;9.894;2023-02-23T00:21:45;100933.81;;;6.78;88.84
21781;BME280;52576;53.614;9.894;2023-02-23T00:23:49;100926.91;;;6.77;88.91
21781;BME280;52576;53.614;9.894;2023-02-23T00:25:53;100933.97;;;6.75;88.92
21781;BME280;52576;53.614;9.894;2023-02-23T00:27:57;100927.09;;;6.74;88.89
21781;BME280;52576;53.614;9.894;2023-02-23T00:30:00;100929.75;;;6.72;88.96
21781;BME280;52576;53.614;9.894;2023-02-23T00:32:03;100930.75;;;6.70;89.14
21781;BME280;52576;53.614;9.894;2023-02-23T00:34:09;100932.56;;;6.68;89.17
21781;BME280;52576;53.614;9.894;2023-02-23T00:36:14;100929.19;;;6.66;89.13
21781;BME280;52576;53.614;9.894;2023-02-23T00:38:18;100929.34;;;6.63;89.04
21781;BME280;52576;53.614;9.894;2023-02-23T00:40:21;100930.25;;;6.62;89.25
21781;BME280;52576;53.614;9.894;2023-02-23T00:42:26;100928.66;;;6.59;89.06
21781;BME280;52576;53.614;9.894;2023-02-23T00:44:35;100928.66;;;6.59;89.24
21781;BME280;52576;53.614;9.894;2023-02-23T00:46:41;100931.31;;;6.58;89.29
21781;BME280;52576;53.614;9.894;2023-02-23T00:48:46;100929.63;;;6.57;89.41
21781;BME280;52576;53.614;9.894;2023-02-23T00:50:57;100930.47;;;6.57;89.40
21781;BME280;52576;53.614;9.894;2023-02-23T00:53:02;100930.53;;;6.56;89.49
21781;BME280;52576;53.614;9.894;2023-02-23T00:55:07;100931.47;;;6.55;89.46
21781;BME280;52576;53.614;9.894;2023-02-23T00:57:10;100932.38;;;6.54;89.55
21781;BME280;52576;53.614;9.894;2023-02-23T00:59:14;100928.09;;;6.53;89.42
21781;BME280;52576;53.614;9.894;2023-02-23T01:01:17;100928.16;;;6.51;89.58
21781;BME280;52576;53.614;9.894;2023-02-23T01:03:24;100932.63;;;6.49;89.59
21781;BME280;52576;53.614;9.894;2023-02-23T01:05:27;100932.69;;;6.47;89.58
21781;BME280;52576;53.614;9.894;2023-02-23T01:07:31;100931.91;;;6.45;89.61
21781;BME280;52576;53.614;9.894;2023-02-23T01:09:35;100937.13;;;6.45;89.78
21781;BME280;52576;53.614;9.894;2023-02-23T01:11:39;100940.66;;;6.44;89.61
21781;BME280;52576;53.614;9.894;2023-02-23T01:13:44;100931.91;;;6.45;89.80
21781;BME280;52576;53.614;9.894;2023-02-23T01:15:48;100937.97;;;6.46;89.90
21781;BME280;52576;53.614;9.894;2023-02-23T01:17:53;100941.34;;;6.48;89.91
21781;BME280;52576;53.614;9.894;2023-02-23T01:19:56;100933.47;;;6.50;90.02
21781;BME280;52576;53.614;9.894;2023-02-23T01:22:00;100942.03;;;6.52;90.15
21781;BME280;52576;53.614;9.894;2023-02-23T01:24:04;100935.81;;;6.54;90.29
21781;BME280;52576;53.614;9.894;2023-02-23T01:26:16;100931.47;;;6.55;90.01
21781;BME280;52576;53.614;9.894;2023-02-23T01:28:19;100934.00;;;6.56;90.24
21781;BME280;52576;53.614;9.894;2023-02-23T01:30:23;100927.94;;;6.56;90.33
21781;BME280;52576;53.614;9.894;2023-02-23T01:32:26;100927.09;;;6.55;90.23
21781;BME280;52576;53.614;9.894;2023-02-23T01:34:30;100932.22;;;6.57;90.23
21781;BME280;52576;53.614;9.894;2023-02-23T01:36:35;100922.72;;;6.56;90.46
21781;BME280;52576;53.614;9.894;2023-02-23T01:38:40;100921.88;;;6.55;90.35
21781;BME280;52576;53.614;9.894;2023-02-23T01:40:43;100927.09;;;6.55;90.36
21781;BME280;52576;53.614;9.894;2023-02-23T01:42:49;100934.97;;;6.54;90.30
21781;BME280;52576;53.614;9.894;2023-02-23T01:45:20;100929.78;;;6.54;90.28
21781;BME280;52576;53.614;9.894;2023-02-23T01:47:24;100932.38;;;6.54;90.49
21781;BME280;52576;53.614;9.894;2023-02-23T01:49:29;100924.56;;;6.54;90.42
21781;BME280;52576;53.614;9.894;2023-02-23T01:51:36;100929.78;;;6.54;90.45
21781;BME280;52576;53.614;9.894;2023-02-23T01:53:48;100923.66;;;6.55;90.63
21781;BME280;52576;53.614;9.894;2023-02-23T01:55:58;100920.19;;;6.54;90.45
21781;BME280;52576;53.614;9.894;2023-02-23T01:58:12;100922.81;;;6.54;90.64
21781;BME280;52576;53.614;9.894;2023-02-23T02:00:18;100921.88;;;6.55;90.67
21781;BME280;52576;53.614;9.894;2023-02-23T02:02:28;100922.72;;;6.56;90.66
21781;BME280;52576;53.614;9.894;2023-02-23T02:04:36;100921.81;;;6.57;90.66
21781;BME280;52576;53.614;9.894;2023-02-23T02:06:47;100925.28;;;6.57;90.61
21781;BME280;52576;53.614;9.894;2023-02-23T02:08:57;100920.06;;;6.57;90.72
21781;BME280;52576;53.614;9.894;2023-02-23T02:11:02;100926.13;;;6.58;90.76
21781;BME280;52576;53.614;9.894;2023-02-23T02:13:16;100916.53;;;6.58;90.62
21781;BME280;52576;53.614;9.894;2023-02-23T02:15:23;100917.38;;;6.59;90.67
21781;BME280;52576;53.614;9.894;2023-02-23T02:17:40;100918.31;;;6.58;90.73
21781;BME280;52576;53.614;9.894;2023-02-23T02:20:22;100918.22;;;6.59;90.65
21781;BME280;52576;53.614;9.894;2023-02-23T02:22:52;100915.69;;;6.58;90.54
21781;BME280;52576;53.614;9.894;2023-02-23T02:25:29;100916.47;;;6.60;90.69
21781;BME280;52576;53.614;9.894;2023-02-23T02:28:04;100915.56;;;6.61;90.56
21781;BME280;52576;53.614;9.894;2023-02-23T02:30:37;100915.56;;;6.61;90.57
21781;BME280;52576;53.614;9.894;2023-02-23T02:35:48;100917.25;;;6.62;90.54
21781;BME280;52576;53.614;9.894;2023-02-23T02:38:07;100918.94;;;6.63;90.61
21781;BME280;52576;53.614;9.894;2023-02-23T02:40:25;100924.97;;;6.63;90.65
21781;BME280;52576;53.614;9.894;2023-02-23T02:42:33;100912.72;;;6.65;90.60
21781;BME280;52576;53.614;9.894;2023-02-23T02:44:43;100922.16;;;6.68;90.68
21781;BME280;52576;53.614;9.894;2023-02-23T02:46:56;100914.28;;;6.69;90.71
21781;BME280;52576;53.614;9.894;2023-02-23T02:49:05;100918.50;;;6.72;90.70
21781;BME280;52576;53.614;9.894;2023-02-23T02:51:15;100916.81;;;6.71;90.63
21781;BME280;52576;53.614;9.894;2023-02-23T02:53:29;100922.00;;;6.71;90.74
21781;BME280;52576;53.614;9.894;2023-02-23T02:55:39;100916.81;;;6.71;90.58
21781;BME280;52576;53.614;9.894;2023-02-23T02:57:47;100918.50;;;6.72;90.65
21781;BME280;52576;53.614;9.894;2023-02-23T02:59:52;100917.72;;;6.70;90.50
21781;BME280;52576;53.614;9.894;2023-02-23T03:02:16;100915.19;;;6.68;90.47
21781;BME280;52576;53.614;9.894;2023-02-23T03:04:37;100913.50;;;6.67;90.48
21781;BME280;52576;53.614;9.894;2023-02-23T03:07:03;100905.75;;;6.66;90.51
21781;BME280;52576;53.614;9.894;2023-02-23T03:09:34;100910.19;;;6.64;90.45
21781;BME280;52576;53.614;9.894;2023-02-23T03:12:09;100912.88;;;6.62;90.39
21781;BME280;52576;53.614;9.894;2023-02-23T03:14:32;100917.25;;;6.62;90.24
21781;BME280;52576;53.614;9.894;2023-02-23T03:17:01;100915.56;;;6.61;90.18
21781;BME280;52576;53.614;9.894;2023-02-23T03:19:28;100910.34;;;6.61;90.10
21781;BME280;52576;53.614;9.894;2023-02-23T03:21:53;100912.19;;;6.59;90.17
21781;BME280;52576;53.614;9.894;2023-02-23T03:24:24;100907.88;;;6.58;90.07
21781;BME280;52576;53.614;9.894;2023-02-23T03:26:57;100912.31;;;6.56;90.06
21781;BME280;52576;53.614;9.894;2023-02-23T03:29:28;100908.94;;;6.54;90.10
21781;BME280;52576;53.614;9.894;2023-02-23T03:31:57;100905.56;;;6.52;90.16
21781;BME280;52576;53.614;9.894;2023-02-23T03:34:27;100905.56;;;6.52;90.12
21781;BME280;52576;53.614;9.894;2023-02-23T03:36:56;100907.44;;;6.50;90.17
21781;BME280;52576;53.614;9.894;2023-02-23T03:39:23;100905.75;;;6.49;90.15
21781;BME280;52576;53.614;9.894;2023-02-23T03:41:48;100907.44;;;6.50;90.11
21781;BME280;52576;53.614;9.894;2023-02-23T03:44:16;100910.94;;;6.49;90.20
21781;BME280;52576;53.614;9.894;2023-02-23T03:46:40;100911.69;;;6.51;90.29
21781;BME280;52576;53.614;9.894;2023-02-23T03:49:04;100907.25;;;6.53;90.32
21781;BME280;52576;53.614;9.894;2023-02-23T03:51:27;100908.09;;;6.53;90.41
21781;BME280;52576;53.614;9.894;2023-02-23T03:53:54;100906.34;;;6.54;90.44
21781;BME280;52576;53.614;9.894;2023-02-23T03:56:19;100915.84;;;6.55;90.33
21781;BME280;52576;53.614;9.894;2023-02-23T03:58:46;100913.31;;;6.53;90.28
21781;BME280;52576;53.614;9.894;2023-02-23T04:01:11;100910.78;;;6.52;90.40
21781;BME280;52576;53.614;9.894;2023-02-23T04:03:35;100919.50;;;6.51;90.23
21781;BME280;52576;53.614;9.894;2023-02-23T04:05:59;100914.28;;;6.51;90.27
21781;BME280;52576;53.614;9.894;2023-02-23T04:08:24;100915.97;;;6.52;90.33
21781;BME280;52576;53.614;9.894;2023-02-23T04:10:56;100914.28;;;6.51;90.29
21781;BME280;52576;53.614;9.894;2023-02-23T04:13:21;100911.69;;;6.51;90.25
21781;BME280;52576;53.614;9.894;2023-02-23T04:15:28;100913.44;;;6.50;90.23
21781;BME280;52576;53.614;9.894;2023-02-23T04:17:32;100912.63;;;6.50;90.27
21781;BME280;52576;53.614;9.894;2023-02-23T04:19:36;100919.59;;;6.49;90.23
21781;BME280;52576;53.614;9.894;2023-02-23T04:21:40;100916.16;;;6.49;90.34
21781;BME280;52576;53.614;9.894;2023-02-23T04:23:43;100912.72;;;6.48;90.32
21781;BME280;52576;53.614;9.894;2023-02-23T04:25:46;100917.84;;;6.50;90.28
21781;BME280;52576;53.614;9.894;2023-02-23T04:27:50;100918.66;;;6.50;90.23
21781;BME280;52576;53.614;9.894;2023-02-23T04:29:54;100919.50;;;6.51;90.34
21781;BME280;52576;53.614;9.894;2023-02-23T04:31:57;100922.88;;;6.53;90.42
21781;BME280;52576;53.614;9.894;2023-02-23T04:34:02;100920.19;;;6.54;90.40
21781;BME280;52576;53.614;9.894;2023-02-23T04:36:06;100910.63;;;6.55;90.34
21781;BME280;52576;53.614;9.894;2023-02-23T04:38:09;100918.44;;;6.55;90.32
21781;BME280;52576;53.614;9.894;2023-02-23T04:40:13;100914.16;;;6.54;90.29
21781;BME280;52576;53.614;9.894;2023-02-23T04:42:16;100924.63;;;6.52;90.27
21781;BME280;52576;53.614;9.894;2023-02-23T04:44:19;100919.50;;;6.51;90.32
21781;BME280;52576;53.614;9.894;2023-02-23T04:46:23;100919.50;;;6.51;90.27
21781;BME280;52576;53.614;9.894;2023-02-23T04:48:26;100912.63;;;6.50;90.15
21781;BME280;52576;53.614;9.894;2023-02-23T04:50:31;100914.47;;;6.47;90.24
21781;BME280;52576;53.614;9.894;2023-02-23T04:52:35;100922.28;;;6.47;90.30
21781;BME280;52576;53.614;9.894;2023-02-23T04:54:38;100909.25;;;6.47;90.17
21781;BME280;52576;53.614;9.894;2023-02-23T04:56:41;100919.69;;;6.47;90.22
21781;BME280;52576;53.614;9.894;2023-02-23T04:58:45;100921.38;;;6.49;90.27
21781;BME280;52576;53.614;9.894;2023-02-23T05:00:48;100919.50;;;6.51;90.16
21781;BME280;52576;53.614;9.894;2023-02-23T05:02:51;100924.72;;;6.51;90.25
21781;BME280;52576;53.614;9.894;2023-02-23T05:04:55;100921.19;;;6.52;90.24
21781;BME280;52576;53.614;9.894;2023-02-23T05:06:59;100917.66;;;6.53;90.16
21781;BME280;52576;53.614;9.894;2023-02-23T05:09:02;100921.03;;;6.55;90.25
21781;BME280;52576;53.614;9.894;2023-02-23T05:11:07;100923.59;;;6.56;90.34
21781;BME280;52576;53.614;9.894;2023-02-23T05:13:10;100920.91;;;6.58;90.25
21781;BME280;52576;53.614;9.894;2023-02-23T05:15:13;100922.59;;;6.59;90.11
21781;BME280;52576;53.614;9.894;2023-02-23T05:17:17;100923.44;;;6.59;90.28
21781;BME280;52576;53.614;9.894;2023-02-23T05:19:20;100917.25;;;6.62;90.22
21781;BME280;52576;53.614;9.894;2023-02-23T05:21:24;100928.34;;;6.65;90.15
21781;BME280;52576;53.614;9.894;2023-02-23T05:23:28;100929.13;;;6.67;90.23
21781;BME280;52576;53.614;9.894;2023-02-23T05:25:32;100930.75;;;6.70;90.29
21781;BME280;52576;53.614;9.894;2023-02-23T05:27:35;100927.22;;;6.71;90.33
21781;BME280;52576;53.614;9.894;2023-02-23T05:29:39;100916.81;;;6.71;90.17
21781;BME280;52576;53.614;9.894;2023-02-23T05:31:42;100926.25;;;6.73;90.16
21781;BME280;52576;53.614;9.894;2023-02-23T05:33:45;100935.63;;;6.76;90.22
21781;BME280;52576;53.614;9.894;2023-02-23T05:35:49;100928.59;;;6.78;90.27
21781;BME280;52576;53.614;9.894;2023-02-23T05:37:52;100923.25;;;6.81;90.38
21781;BME280;52576;53.614;9.894;2023-02-23T05:39:56;100927.53;;;6.82;90.35
21781;BME280;52576;53.614;9.894;2023-02-23T05:42:00;100923.09;;;6.84;90.24
21781;BME280;52576;53.614;9.894;2023-02-23T05:44:03;100922.19;;;6.85;90.32
21781;BME280;52576;53.614;9.894;2023-02-23T05:46:07;100918.66;;;6.86;90.22
21781;BME280;52576;53.614;9.894;2023-02-23T05:48:11;100924.63;;;6.88;90.29
21781;BME280;52576;53.614;9.894;2023-02-23T05:50:15;100924.63;;;6.88;90.31
21781;BME280;52576;53.614;9.894;2023-02-23T05:52:18;100919.34;;;6.90;90.20
21781;BME280;52576;53.614;9.894;2023-02-23T05:54:22;100915.91;;;6.89;90.25
21781;BME280;52576;53.614;9.894;2023-02-23T05:56:26;100926.25;;;6.91;90.21
21781;BME280;52576;53.614;9.894;2023-02-23T05:58:30;100921.97;;;6.90;90.00
21781;BME280;52576;53.614;9.894;2023-02-23T06:00:33;100927.16;;;6.90;90.08
21781;BME280;52576;53.614;9.894;2023-02-23T06:02:37;100926.31;;;6.89;89.89
21781;BME280;52576;53.614;9.894;2023-02-23T06:04:41;100931.53;;;6.89;90.06
21781;BME280;52576;53.614;9.894;2023-02-23T06:06:44;100931.53;;;6.89;90.31
21781;BME280;52576;53.614;9.894;2023-02-23T06:08:47;100930.69;;;6.89;90.12
21781;BME280;52576;53.614;9.894;2023-02-23T06:10:51;100934.13;;;6.89;90.11
21781;BME280;52576;53.614;9.894;2023-02-23T06:12:56;100941.97;;;6.89;90.05
21781;BME280;52576;53.614;9.894;2023-02-23T06:14:59;100938.56;;;6.87;89.96
21781;BME280;52576;53.614;9.894;2023-02-23T06:17:02;100942.09;;;6.86;90.02
21781;BME280;52576;53.614;9.894;2023-02-23T06:19:06;100940.41;;;6.85;89.97
21781;BME280;52576;53.614;9.894;2023-02-23T06:21:11;100947.38;;;6.85;90.09
21781;BME280;52576;53.614;9.894;2023-02-23T06:23:15;100943.00;;;6.85;89.95
21781;BME280;52576;53.614;9.894;2023-02-23T06:25:19;100949.16;;;6.84;90.04
21781;BME280;52576;53.614;9.894;2023-02-23T06:27:22;100943.94;;;6.84;89.98
21781;BME280;52576;53.614;9.894;2023-02-23T06:29:27;100947.47;;;6.83;90.14
21781;BME280;52576;53.614;9.894;2023-02-23T06:31:30;100951.81;;;6.82;90.22
21781;BME280;52576;53.614;9.894;2023-02-23T06:33:33;100953.59;;;6.82;90.09
21781;BME280;52576;53.614;9.894;2023-02-23T06:35:37;100957.94;;;6.81;90.15
21781;BME280;52576;53.614;9.894;2023-02-23T06:37:40;100961.41;;;6.82;90.16
21781;BME280;52576;53.614;9.894;2023-02-23T06:39:44;100963.09;;;6.83;90.17
21781;BME280;52576;53.614;9.894;2023-02-23T06:41:48;100959.56;;;6.84;90.08
21781;BME280;52576;53.614;9.894;2023-02-23T06:43:51;100966.47;;;6.85;90.12
21781;BME280;52576;53.614;9.894;2023-02-23T06:45:56;100968.16;;;6.86;90.23
21781;BME280;52576;53.614;9.894;2023-02-23T06:47:59;100977.66;;;6.87;90.26
21781;BME280;52576;53.614;9.894;2023-02-23T06:50:03;100964.63;;;6.87;90.28
21781;BME280;52576;53.614;9.894;2023-02-23T06:52:08;100975.81;;;6.89;90.23
21781;BME280;52576;53.614;9.894;2023-02-23T06:54:14;100979.28;;;6.90;90.36
21781;BME280;52576;53.614;9.894;2023-02-23T06:56:18;100972.31;;;6.90;90.37
21781;BME280;52576;53.614;9.894;2023-02-23T06:58:21;100974.91;;;6.90;90.23
21781;BME280;52576;53.614;9.894;2023-02-23T07:00:24;100982.72;;;6.90;90.24
21781;BME280;52576;53.614;9.894;2023-02-23T07:02:29;100981.03;;;6.89;90.21
21781;BME280;52576;53.614;9.894;2023-02-23T07:04:33;100989.69;;;6.90;90.30
21781;BME280;52576;53.614;9.894;2023-02-23T07:06:36;100994.91;;;6.90;90.15
21781;BME280;52576;53.614;9.894;2023-02-23T07:08:40;100988.00;;;6.89;90.17
21781;BME280;52576;53.614;9.894;2023-02-23T07:10:44;100981.97;;;6.88;90.18
21781;BME280;52576;53.614;9.894;2023-02-23T07:12:47;100996.75;;;6.88;90.15
21781;BME280;52576;53.614;9.894;2023-02-23T07:14:50;100991.53;;;6.88;90.27
21781;BME280;52576;53.614;9.894;2023-02-23T07:16:56;100994.97;;;6.88;90.23
21781;BME280;52576;53.614;9.894;2023-02-23T07:19:01;100998.44;;;6.89;90.24
21781;BME280;52576;53.614;9.894;2023-02-23T07:21:05;100993.16;;;6.90;90.39
21781;BME280;52576;53.614;9.894;2023-02-23T07:23:08;101000.91;;;6.92;90.38
21781;BME280;52576;53.614;9.894;2023-02-23T07:25:12;100999.13;;;6.92;90.29
21781;BME280;52576;53.614;9.894;2023-02-23T07:27:15;100996.47;;;6.94;90.43
21781;BME280;52576;53.614;9.894;2023-02-23T07:29:18;100999.00;;;6.95;90.33
21781;BME280;52576;53.614;9.894;2023-02-23T07:31:22;101002.38;;;6.97;90.42
21781;BME280;52576;53.614;9.894;2023-02-23T07:33:25;101002.38;;;6.97;90.50
21781;BME280;52576;53.614;9.894;2023-02-23T07:35:30;101004.06;;;6.98;90.34
21781;BME280;52576;53.614;9.894;2023-02-23T07:37:33;101003.22;;;6.98;90.27
21781;BME280;52576;53.614;9.894;2023-02-23T07:39:36;101009.34;;;6.97;90.38
21781;BME280;52576;53.614;9.894;2023-02-23T07:41:39;101006.81;;;6.95;90.25
21781;BME280;52576;53.614;9.894;2023-02-23T07:43:51;101007.72;;;6.94;90.33
21781;BME280;52576;53.614;9.894;2023-02-23T07:45:58;101011.25;;;6.93;90.33
21781;BME280;52576;53.614;9.894;2023-02-23T07:48:02;101007.72;;;6.94;90.29
21781;BME280;52576;53.614;9.894;2023-02-23T07:50:06;101015.47;;;6.96;90.32
21781;BME280;52576;53.614;9.894;2023-02-23T07:52:11;101023.22;;;6.97;90.23
21781;BME280;52576;53.614;9.894;2023-02-23T07:54:18;101024.91;;;6.98;90.35
21781;BME280;52576;53.614;9.894;2023-02-23T07:56:22;101020.53;;;6.99;90.34
21781;BME280;52576;53.614;9.894;2023-02-23T07:58:26;101026.59;;;6.99;90.29
21781;BME280;52576;53.614;9.894;2023-02-23T08:00:29;101037.03;;;6.99;90.30
21781;BME280;52576;53.614;9.894;2023-02-23T08:02:33;101032.66;;;7.00;90.30
21781;BME280;52576;53.614;9.894;2023-02-23T08:04:36;101031.81;;;6.99;90.27
21781;BME280;52576;53.614;9.894;2023-02-23T08:06:41;101034.41;;;6.99;90.25
21781;BME280;52576;53.614;9.894;2023-02-23T08:08:46;101037.03;;;6.99;90.29
21781;BME280;52576;53.614;9.894;2023-02-23T08:10:49;101045.75;;;6.98;90.18
21781;BME280;52576;53.614;9.894;2023-02-23T08:12:52;101033.63;;;6.97;90.25
21781;BME280;52576;53.614;9.894;2023-02-23T08:14:56;101036.25;;;6.97;90.21
21781;BME280;52576;53.614;9.894;2023-02-23T08:16:59;101042.38;;;6.96;90.08
21781;BME280;52576;53.614;9.894;2023-02-23T08:19:03;101042.38;;;6.96;90.20
21781;BME280;52576;53.614;9.894;2023-02-23T08:21:06;101045.06;;;6.95;90.14
21781;BME280;52576;53.614;9.894;2023-02-23T08:23:09;101042.38;;;6.96;90.05
21781;BME280;52576;53.614;9.894;2023-02-23T08:25:14;101044.97;;;6.96;90.12
21781;BME280;52576;53.614;9.894;2023-02-23T08:27:18;101047.59;;;6.96;90.07
21781;BME280;52576;53.614;9.894;2023-02-23T08:29:22;101047.59;;;6.96;90.05
21781;BME280;52576;53.614;9.894;2023-02-23T08:31:25;101044.06;;;6.97;90.04
21781;BME280;52576;53.614;9.894;2023-02-23T08:33:28;101047.44;;;6.99;90.07
21781;BME280;52576;53.614;9.894;2023-02-23T08:35:33;101045.63;;;7.01;90.01
21781;BME280;52576;53.614;9.894;2023-02-23T08:37:36;101047.28;;;7.02;89.97
21781;BME280;52576;53.614;9.894;2023-02-23T08:39:41;101050.66;;;7.04;90.00
21781;BME280;52576;53.614;9.894;2023-02-23T08:41:46;101055.72;;;7.07;90.05
21781;BME280;52576;53.614;9.894;2023-02-23T08:43:49;101054.03;;;7.06;90.02
21781;BME280;52576;53.614;9.894;2023-02-23T08:45:52;101052.19;;;7.08;90.02
21781;BME280;52576;53.614;9.894;2023-02-23T08:47:56;101046.13;;;7.08;89.98
21781;BME280;52576;53.614;9.894;2023-02-23T08:49:59;101043.47;;;7.09;89.84
21781;BME280;52576;53.614;9.894;2023-02-23T08:52:03;101046.06;;;7.09;89.92
21781;BME280;52576;53.614;9.894;2023-02-23T08:54:06;101053.03;;;7.09;89.84
21781;BME280;52576;53.614;9.894;2023-02-23T08:56:15;101053.03;;;7.09;89.68
21781;BME280;52576;53.614;9.894;2023-02-23T08:58:19;101051.28;;;7.09;89.69
21781;BME280;52576;53.614;9.894;2023-02-23T09:00:24;101041.78;;;7.08;89.50
21781;BME280;52576;53.614;9.894;2023-02-23T09:02:27;101040.09;;;7.07;89.59
21781;BME280;52576;53.614;9.894;2023-02-23T09:04:30;101046.13;;;7.08;89.38
21781;BME280;52576;53.614;9.894;2023-02-23T09:06:36;101041.91;;;7.05;89.39
21781;BME280;52576;53.614;9.894;2023-02-23T09:08:40;101052.34;;;7.05;89.36
21781;BME280;52576;53.614;9.894;2023-02-23T09:10:43;101050.81;;;7.01;89.14
21781;BME280;52576;53.614;9.894;2023-02-23T09:12:46;101056.09;;;7.00;89.13
21781;BME280;52576;53.614;9.894;2023-02-23T09:14:51;101061.38;;;6.98;89.04
21781;BME280;52576;53.614;9.894;2023-02-23T09:16:55;101056.25;;;6.97;89.00
21781;BME280;52576;53.614;9.894;2023-02-23T09:18:58;101054.63;;;6.94;88.83
21781;BME280;52576;53.614;9.894;2023-02-23T09:21:03;101053.00;;;6.92;88.71
21781;BME280;52576;53.614;9.894;2023-02-23T09:23:09;101054.91;;;6.88;88.90
21781;BME280;52576;53.614;9.894;2023-02-23T09:25:13;101053.34;;;6.84;88.65
21781;BME280;52576;53.614;9.894;2023-02-23T09:27:19;101060.41;;;6.82;88.84
21781;BME280;52576;53.614;9.894;2023-02-23T09:29:22;101057.03;;;6.80;88.70
21781;BME280;52576;53.614;9.894;2023-02-23T09:31:26;101064.06;;;6.78;88.90
21781;BME280;52576;53.614;9.894;2023-02-23T09:33:30;101059.88;;;6.75;88.83
21781;BME280;52576;53.614;9.894;2023-02-23T09:35:33;101059.03;;;6.75;88.98
21781;BME280;52576;53.614;9.894;2023-02-23T09:37:37;101062.53;;;6.74;88.96
21781;BME280;52576;53.614;9.894;2023-02-23T09:39:40;101066.06;;;6.73;88.93
21781;BME280;52576;53.614;9.894;2023-02-23T09:42:02;101065.28;;;6.71;88.91
21781;BME280;52576;53.614;9.894;2023-02-23T09:44:15;101064.38;;;6.72;88.86
21781;BME280;52576;53.614;9.894;2023-02-23T09:46:31;101062.69;;;6.71;88.74
21781;BME280;52576;53.614;9.894;2023-02-23T09:48:38;101072.03;;;6.75;88.85
21781;BME280;52576;53.614;9.894;2023-02-23T09:50:44;101074.47;;;6.78;88.87
21781;BME280;52576;53.614;9.894;2023-02-23T09:52:52;101072.50;;;6.83;88.80
21781;BME280;52576;53.614;9.894;2023-02-23T09:54:57;101075.75;;;6.88;88.81
21781;BME280;52576;53.614;9.894;2023-02-23T09:57:03;101078.16;;;6.93;88.66
21781;BME280;52576;53.614;9.894;2023-02-23T09:59:12;101069.28;;;6.97;88.61
21781;BME280;52576;53.614;9.894;2023-02-23T10:01:44;101076.88;;;7.01;88.37
21781;BME280;52576;53.614;9.894;2023-02-23T10:03:57;101081.94;;;7.04;88.21
21781;BME280;52576;53.614;9.894;2023-02-23T10:06:05;101080.22;;;7.03;87.98
21781;BME280;52576;53.614;9.894;2023-02-23T10:08:28;101081.16;;;7.02;87.63
21781;BME280;52576;53.614;9.894;2023-02-23T10:10:38;101082.09;;;7.01;87.43
21781;BME280;52576;53.614;9.894;2023-02-23T10:12:47;101083.00;;;7.00;87.20
21781;BME280;52576;53.614;9.894;2023-02-23T10:15:08;101081.16;;;7.02;87.07
21781;BME280;52576;53.614;9.894;2023-02-23T10:17:23;101078.72;;;6.99;86.88
21781;BME280;52576;53.614;9.894;2023-02-23T10:19:31;101078.72;;;6.99;86.81
21781;BME280;52576;53.614;9.894;2023-02-23T10:21:40;101083.09;;;6.99;86.70
21781;BME280;52576;53.614;9.894;2023-02-23T10:23:47;101083.16;;;6.97;86.43
21781;BME280;52576;53.614;9.894;2023-02-23T10:25:56;101082.38;;;6.95;86.47
21781;BME280;52576;53.614;9.894;2023-02-23T10:28:01;101091.09;;;6.94;86.42
21781;BME280;52576;53.614;9.894;2023-02-23T10:30:18;101089.34;;;6.95;86.40
21781;BME280;52576;53.614;9.894;2023-02-23T10:32:31;101085.91;;;6.94;86.38
21781;BME280;52576;53.614;9.894;2023-02-23T10:34:40;101084.97;;;6.95;86.44
21781;BME280;52576;53.614;9.894;2023-02-23T10:36:46;101087.44;;;6.98;86.51
21781;BME280;52576;53.614;9.894;2023-02-23T10:38:52;101095.19;;;7.00;86.47
21781;BME280;52576;53.614;9.894;2023-02-23T10:40:56;101088.28;;;6.99;86.27
21781;BME280;52576;53.614;9.894;2023-02-23T10:43:00;101094.50;;;6.96;85.99
21781;BME280;52576;53.614;9.894;2023-02-23T10:45:12;101098.94;;;6.94;85.85
21781;BME280;52576;53.614;9.894;2023-02-23T10:47:21;101096.47;;;6.91;85.54
21781;BME280;52576;53.614;9.894;2023-02-23T10:49:34;101099.13;;;6.90;85.16
21781;BME280;52576;53.614;9.894;2023-02-23T10:51:41;101097.50;;;6.87;85.08
21781;BME280;52576;53.614;9.894;2023-02-23T10:53:45;101088.00;;;6.86;84.80
21781;BME280;52576;53.614;9.894;2023-02-23T10:56:02;101092.31;;;6.87;84.63
21781;BME280;52576;53.614;9.894;2023-02-23T10:58:09;101096.53;;;6.90;84.33
21781;BME280;52576;53.614;9.894;2023-02-23T11:00:24;101098.16;;;6.92;84.20
21781;BME280;52576;53.614;9.894;2023-02-23T11:02:31;101094.44;;;6.98;83.93
21781;BME280;52576;53.614;9.894;2023-02-23T11:04:49;101100.09;;;7.06;83.69
21781;BME280;52576;53.614;9.894;2023-02-23T11:07:07;101088.41;;;7.14;83.19
21781;BME280;52576;53.614;9.894;2023-02-23T11:09:26;101092.28;;;7.25;82.98
21781;BME280;52576;53.614;9.894;2023-02-23T11:11:55;101079.53;;;7.36;82.63
21781;BME280;52576;53.614;9.894;2023-02-23T11:14:15;101087.06;;;7.42;82.28
21781;BME280;52576;53.614;9.894;2023-02-23T11:16:20;101085.94;;;7.47;82.02
21781;BME280;52576;53.614;9.894;2023-02-23T11:18:24;101076.22;;;7.51;81.66
21781;BME280;52576;53.614;9.894;2023-02-23T11:20:32;101084.63;;;7.56;81.45
21781;BME280;52576;53.614;9.894;2023-02-23T11:22:40;101078.34;;;7.60;81.12